• Join FlightAware (Why Join?)
  • Login
  • US Flag 
06:45PM EDT


 

Airport Tracker/Info


-or-


 

Live Flight TrackerFlight Track Log ✈ HAL107 ✈ 27-Apr-2013 ✈ PHKO / KOA - PHNL

Flight Track Log - Related Links

Times and Time Zones

All times are in EDT time to prevent confusion due to time zone crossing. See the HAL107 flight status page for this flight to view local times or setup timezone preferences in your user account.

Time Position Orientation Groundspeed Altitude Reporting Facility
EDT Latitude Longitude Course Direction KTS MPH feet Rate Location/Type
12:17PM 19.7000 -156.0500 303° West 240 276 1,700  Level Honolulu Center
12:18PM 19.7167 -156.1000 290° West 230 265 3,100 1,620 Climbing Honolulu Center
12:19PM 19.7667 -156.1500 317° Northwest 260 299 5,000 2,040 Climbing Honolulu Center
12:20PM 19.8582 -156.2706 305° West  Level FlightAware Approximate
12:20PM 19.8167 -156.2167 309° West 280 322 7,200  Level Honolulu Center
12:21PM 19.9196 -156.3468 301° West  Level FlightAware Approximate
12:21PM 19.8833 -156.2833 317° Northwest 300 345 9,500  Level Honolulu Center
12:22PM 19.9697 -156.4363 317° Northwest  Level FlightAware Approximate
12:22PM 19.9333 -156.3500 309° West 320 368 11,100  Level Honolulu Center
12:23PM 20.0321 -156.5201 303° West  Level FlightAware Approximate
12:23PM 20.0000 -156.4333 310° West 360 414 12,100  Level Honolulu Center
12:24PM 20.0667 -156.5167 310° West 380 437 14,100 1,920 Climbing Honolulu Center
12:25PM 20.1500 -156.6000 317° Northwest 380 437 16,000 1,800 Climbing Honolulu Center
12:26PM 20.2167 -156.6833 310° West 390 449 17,700 1,980 Climbing Honolulu Center
12:27PM 20.2833 -156.7667 310° West 390 449 20,000 1,140 Climbing Honolulu Center
12:28PM 20.3667 -156.8500 317° Northwest 390 449 20,000  Level Honolulu Center
12:29PM 20.4333 -156.9500 305° West 390 449 20,000  Level Honolulu Center
12:30PM 20.5000 -157.0333 311° West 380 437 20,000  Level Honolulu Center
12:31PM 20.5833 -157.1167 317° Northwest 390 449 20,000  Level Honolulu Center
12:32PM 20.6500 -157.2000 311° West 390 449 20,000 -120 Level Honolulu Center
12:33PM 20.7167 -157.2833 311° West 390 449 19,800 -1,260 Descending Honolulu Center
12:34PM 20.7833 -157.3833 306° West 380 437 17,500 -2,400 Descending Honolulu Center
12:35PM 20.8500 -157.4667 311° West 370 426 15,000 -2,580 Descending Honolulu Center
12:36PM 20.9167 -157.5500 311° West 360 414 12,400 -2,160 Descending Honolulu Center
12:37PM 20.9667 -157.6333 303° West 340 391 10,700 -1,620 Descending Honolulu Center
12:38PM 21.0167 -157.7000 309° West 300 345 9,200 -1,620 Descending Honolulu Center
12:39PM 21.0667 -157.7833 303° West 290 334 7,500 -1,800 Descending Honolulu Center
12:40PM 21.1167 -157.8500 309° West 280 322 5,700 -2,100 Descending Honolulu Center
12:41PM 21.1667 -157.9167 309° West 270 311 3,400 -2,040 Descending Honolulu Center
12:42PM 21.2333 -157.9500 335° Northwest 260 299 1,600 -1,800 Descending Honolulu Center